Time;durP1;ratioP1;P1;durP2;ratioP2;P2;SDS_P1;SDS_P2;PMS_P1;PMS_P2;Temp;Humidity;BMP_temperature;BMP_pressure;BME280_temperature;BME280_humidity;BME280_pressure;Samples;Min_cycle;Max_cycle;Signal;HPM_P1;HPM_P2
2023/01/01 00:00:18;;;;;;;41.47;25.90;;;15.70;99.90;;;;;;7293745;32;20518;-59
2023/01/01 00:04:20;;;;;;;43.85;25.48;;;15.60;99.90;;;;;;7295959;32;20454;-59
2023/01/01 00:08:21;;;;;;;50.55;29.65;;;15.60;99.90;;;;;;7297725;32;20249;-60
2023/01/01 00:12:23;;;;;;;46.60;29.52;;;15.50;99.90;;;;;;7295953;32;20112;-61
2023/01/01 00:16:24;;;;;;;54.15;35.88;;;15.40;99.90;;;;;;7277002;32;20226;-63
2023/01/01 00:20:26;;;;;;;67.37;48.83;;;15.30;99.90;;;;;;7282556;32;20418;-59
2023/01/01 00:24:35;;;;;;;70.03;51.13;;;15.20;99.90;;;;;;7278319;32;20147;-61
2023/01/01 00:28:37;;;;;;;61.10;45.70;;;15.10;99.90;;;;;;7290707;32;23132;-61
2023/01/01 00:32:39;;;;;;;58.22;40.10;;;15.00;99.90;;;;;;7293878;32;20555;-61
2023/01/01 00:36:40;;;;;;;45.65;31.70;;;15.00;99.90;;;;;;7286505;32;20134;-60
2023/01/01 00:40:42;;;;;;;33.78;22.00;;;15.00;99.90;;;;;;7290537;32;20270;-60
2023/01/01 00:44:44;;;;;;;21.10;12.20;;;15.00;99.90;;;;;;7293510;32;20211;-60
2023/01/01 00:48:46;;;;;;;21.23;11.05;;;15.10;99.90;;;;;;7296541;32;20507;-61
2023/01/01 00:52:48;;;;;;;16.85;8.80;;;15.10;99.90;;;;;;7293144;32;20127;-60
2023/01/01 00:56:50;;;;;;;14.93;8.02;;;15.10;99.90;;;;;;7290986;32;20146;-60
2023/01/01 01:00:52;;;;;;;15.70;7.00;;;15.00;99.90;;;;;;7276155;32;20282;-60
2023/01/01 01:04:54;;;;;;;14.43;6.40;;;15.10;99.90;;;;;;7291645;32;20112;-60
2023/01/01 01:08:56;;;;;;;12.85;4.57;;;15.10;99.90;;;;;;7280805;32;20138;-61
2023/01/01 01:12:58;;;;;;;9.23;4.25;;;15.10;99.90;;;;;;7276600;32;20108;-61
2023/01/01 01:16:59;;;;;;;8.65;4.18;;;15.00;99.90;;;;;;7292726;32;20135;-61
2023/01/01 01:21:02;;;;;;;12.43;3.83;;;14.90;99.90;;;;;;7277118;32;20107;-61
2023/01/01 01:25:05;;;;;;;8.45;3.20;;;15.00;99.90;;;;;;7279808;32;20140;-60
2023/01/01 01:29:07;;;;;;;8.55;3.17;;;14.90;99.90;;;;;;7289102;32;20629;-62
2023/01/01 01:33:09;;;;;;;7.78;2.42;;;14.90;99.90;;;;;;7291090;32;20413;-60
2023/01/01 01:37:11;;;;;;;6.70;2.80;;;14.90;99.90;;;;;;7290412;32;20116;-60
2023/01/01 01:41:15;;;;;;;6.65;2.20;;;14.90;99.90;;;;;;7295025;32;20116;-61
2023/01/01 01:45:29;;;;;;;4.70;2.08;;;14.80;99.90;;;;;;7289318;32;20141;-60
2023/01/01 01:49:34;;;;;;;5.20;1.95;;;15.00;99.90;;;;;;7293130;32;20532;-60
2023/01/01 01:53:45;;;;;;;4.90;1.75;;;14.90;99.90;;;;;;7269409;32;20313;-60
2023/01/01 01:57:47;;;;;;;5.15;1.90;;;14.80;99.90;;;;;;7281429;32;20165;-60
2023/01/01 02:01:48;;;;;;;3.95;1.75;;;14.80;99.90;;;;;;7286130;32;20199;-60
2023/01/01 02:05:51;;;;;;;5.72;2.33;;;14.80;99.90;;;;;;7284222;32;20583;-60
2023/01/01 02:09:53;;;;;;;7.87;2.22;;;14.70;99.90;;;;;;7299688;32;20161;-60
2023/01/01 02:13:57;;;;;;;5.72;2.08;;;14.80;99.90;;;;;;7286558;32;20215;-61
2023/01/01 02:18:15;;;;;;;7.87;2.55;;;14.70;99.90;;;;;;7283279;32;20127;-60
2023/01/01 02:22:44;;;;;;;4.12;1.60;;;14.60;99.90;;;;;;7302913;32;20138;-60
2023/01/01 02:27:15;;;;;;;8.43;2.00;;;14.60;99.90;;;;;;7256668;32;20214;-60
2023/01/01 02:31:25;;;;;;;5.68;1.60;;;14.60;99.90;;;;;;7269170;32;20294;-61
2023/01/01 02:35:33;;;;;;;4.90;1.40;;;14.50;99.90;;;;;;7298043;32;20158;-62
2023/01/01 02:39:38;;;;;;;7.43;1.60;;;14.50;99.90;;;;;;7283590;32;20531;-62
2023/01/01 02:43:41;;;;;;;6.40;1.55;;;14.50;99.90;;;;;;7280253;32;20260;-61
2023/01/01 02:47:43;;;;;;;3.53;1.42;;;14.50;99.90;;;;;;7301014;32;20179;-61
2023/01/01 02:51:54;;;;;;;5.05;1.20;;;14.50;99.90;;;;;;7285686;32;20112;-65
2023/01/01 02:56:04;;;;;;;3.50;1.12;;;14.50;99.90;;;;;;7297685;32;20570;-62
2023/01/01 03:00:18;;;;;;;6.50;1.37;;;14.50;99.90;;;;;;7298960;32;20794;-61
2023/01/01 03:04:42;;;;;;;3.87;1.17;;;14.50;99.90;;;;;;7282206;32;20147;-61
2023/01/01 03:09:05;;;;;;;4.50;1.55;;;14.50;99.90;;;;;;7283622;32;20650;-61
2023/01/01 03:13:19;;;;;;;5.22;1.20;;;14.40;99.90;;;;;;7292767;32;20299;-61
2023/01/01 03:17:21;;;;;;;6.45;1.30;;;14.40;99.90;;;;;;7284663;32;20112;-61
2023/01/01 03:21:23;;;;;;;4.30;1.20;;;14.40;99.90;;;;;;7297083;32;20203;-61
2023/01/01 03:25:30;;;;;;;6.28;1.23;;;14.40;99.90;;;;;;7283929;32;20518;-61
2023/01/01 03:29:35;;;;;;;4.22;1.02;;;14.40;99.90;;;;;;7298802;32;20181;-60
2023/01/01 03:33:45;;;;;;;3.70;1.00;;;14.30;99.90;;;;;;7296034;32;20176;-61
2023/01/01 03:37:50;;;;;;;3.53;1.27;;;14.30;99.90;;;;;;7295817;32;20494;-61
2023/01/01 03:42:05;;;;;;;3.70;1.00;;;14.30;99.90;;;;;;7294512;32;20640;-61
2023/01/01 03:46:09;;;;;;;3.15;0.93;;;14.30;99.90;;;;;;7296115;32;20138;-61
2023/01/01 03:50:13;;;;;;;4.03;1.20;;;14.20;99.90;;;;;;7264597;32;20116;-61
2023/01/01 03:54:57;;;;;;;3.67;1.15;;;14.30;99.90;;;;;;7299447;32;20181;-62
2023/01/01 03:59:12;;;;;;;3.83;0.98;;;14.20;99.90;;;;;;7295752;32;20096;-61
2023/01/01 04:03:26;;;;;;;2.65;1.20;;;14.20;99.90;;;;;;7285006;32;20123;-61
2023/01/01 04:07:30;;;;;;;4.20;1.20;;;14.30;99.90;;;;;;7284829;32;20137;-62
2023/01/01 04:15:54;;;;;;;5.80;1.10;;;14.30;99.90;;;;;;7297130;32;20195;-60
2023/01/01 04:19:55;;;;;;;5.07;0.95;;;14.20;99.90;;;;;;7292788;32;21390;-60
2023/01/01 04:23:57;;;;;;;8.13;1.25;;;14.20;99.90;;;;;;7297557;32;20104;-60
2023/01/01 04:28:02;;;;;;;6.10;1.33;;;14.30;99.90;;;;;;7298818;32;20179;-60
2023/01/01 04:32:04;;;;;;;8.93;1.87;;;14.30;99.90;;;;;;7284607;32;20165;-59
2023/01/01 04:36:09;;;;;;;3.67;0.95;;;14.40;99.90;;;;;;7296983;32;20421;-60
2023/01/01 04:40:12;;;;;;;4.43;1.30;;;14.30;99.90;;;;;;7282926;32;20194;-60
2023/01/01 04:44:14;;;;;;;9.07;1.87;;;14.30;99.90;;;;;;7284586;32;20795;-59
2023/01/01 04:48:16;;;;;;;5.68;1.25;;;14.50;99.90;;;;;;7271181;32;20100;-59
2023/01/01 04:52:18;;;;;;;6.28;1.37;;;14.40;99.90;;;;;;7292001;32;20235;-59
2023/01/01 04:56:21;;;;;;;6.95;1.00;;;14.50;99.90;;;;;;7281580;32;20173;-60
2023/01/01 05:00:23;;;;;;;5.28;1.15;;;14.50;99.90;;;;;;7284025;32;20418;-59
2023/01/01 05:04:25;;;;;;;5.65;1.35;;;14.50;99.90;;;;;;7278294;32;20474;-61
2023/01/01 05:08:29;;;;;;;4.35;1.30;;;14.50;99.90;;;;;;7285143;32;20513;-59
2023/01/01 05:12:31;;;;;;;5.07;1.15;;;14.60;99.90;;;;;;7282121;32;20223;-59
2023/01/01 05:16:36;;;;;;;6.68;1.33;;;14.50;99.90;;;;;;7280420;32;20304;-59
2023/01/01 05:20:37;;;;;;;4.78;1.20;;;14.50;99.90;;;;;;7265557;32;20634;-60
2023/01/01 05:24:39;;;;;;;5.97;1.15;;;14.50;99.90;;;;;;7283035;32;20192;-60
2023/01/01 05:28:41;;;;;;;8.38;1.33;;;14.50;99.90;;;;;;7283293;32;20468;-60
2023/01/01 05:32:43;;;;;;;4.93;1.67;;;14.40;99.90;;;;;;7281859;32;20655;-60
2023/01/01 05:36:45;;;;;;;7.18;1.83;;;14.30;99.90;;;;;;7298076;32;20124;-61
2023/01/01 05:40:47;;;;;;;6.90;2.25;;;14.30;99.90;;;;;;7294395;32;20123;-60
2023/01/01 05:44:48;;;;;;;6.93;1.95;;;14.20;99.90;;;;;;7302378;32;20190;-60
2023/01/01 05:48:52;;;;;;;3.17;1.27;;;14.30;99.90;;;;;;7285507;32;20225;-60
2023/01/01 05:52:54;;;;;;;5.90;1.30;;;14.30;99.90;;;;;;7290035;32;20115;-60
2023/01/01 05:56:56;;;;;;;3.10;1.30;;;14.30;99.90;;;;;;7300763;32;20293;-59
2023/01/01 06:01:06;;;;;;;9.07;1.40;;;14.30;99.90;;;;;;7300784;32;20251;-60
2023/01/01 06:05:08;;;;;;;5.18;1.25;;;14.20;99.90;;;;;;7301880;32;20451;-60
2023/01/01 06:09:10;;;;;;;4.95;1.20;;;14.10;99.90;;;;;;7294471;32;20510;-61
2023/01/01 06:13:12;;;;;;;7.07;1.23;;;14.10;99.90;;;;;;7288120;32;20104;-62
2023/01/01 06:17:14;;;;;;;4.57;1.20;;;14.10;99.90;;;;;;7287335;32;20226;-60
2023/01/01 06:21:18;;;;;;;5.40;1.35;;;14.10;99.90;;;;;;7282320;32;20161;-60
2023/01/01 06:25:20;;;;;;;3.17;1.10;;;14.30;99.90;;;;;;7307256;32;20131;-60
2023/01/01 06:29:22;;;;;;;7.10;1.20;;;14.30;99.90;;;;;;7287397;32;20241;-60
2023/01/01 06:33:24;;;;;;;4.95;1.23;;;14.40;99.90;;;;;;7287005;32;20249;-60
2023/01/01 06:37:27;;;;;;;6.30;1.20;;;14.40;99.90;;;;;;7297980;32;20145;-60
2023/01/01 06:41:29;;;;;;;5.32;1.08;;;14.40;99.90;;;;;;7287855;32;20108;-60
2023/01/01 06:45:31;;;;;;;5.07;1.62;;;14.40;99.90;;;;;;7272738;32;20214;-60
2023/01/01 06:49:33;;;;;;;8.75;1.45;;;14.40;99.90;;;;;;7301268;32;20576;-60
2023/01/01 06:53:35;;;;;;;2.87;1.05;;;14.30;99.90;;;;;;7286669;32;20198;-61
2023/01/01 06:57:36;;;;;;;6.85;1.00;;;14.30;99.90;;;;;;7272408;32;20688;-60
2023/01/01 07:01:41;;;;;;;8.43;1.58;;;14.30;99.90;;;;;;7279398;32;20157;-60
2023/01/01 07:05:45;;;;;;;5.82;1.20;;;14.30;99.90;;;;;;7300402;32;20486;-61
2023/01/01 07:09:47;;;;;;;6.95;1.05;;;14.30;99.90;;;;;;7285019;32;20100;-60
2023/01/01 07:13:49;;;;;;;6.50;1.40;;;14.30;99.90;;;;;;7298752;32;20246;-60
2023/01/01 07:17:50;;;;;;;10.80;1.60;;;14.30;99.90;;;;;;7272234;32;20565;-59
2023/01/01 07:21:53;;;;;;;6.78;1.27;;;14.40;99.90;;;;;;7272533;32;20123;-59
2023/01/01 07:25:56;;;;;;;6.85;1.48;;;14.40;99.90;;;;;;7282223;32;20638;-61
2023/01/01 07:29:57;;;;;;;3.55;1.08;;;14.40;99.90;;;;;;7285403;32;20573;-61
2023/01/01 07:33:59;;;;;;;6.68;1.30;;;14.30;99.90;;;;;;7270908;32;20818;-60
2023/01/01 07:38:01;;;;;;;8.90;1.65;;;14.30;99.90;;;;;;7269559;32;20210;-60
2023/01/01 07:42:03;;;;;;;5.32;1.20;;;14.30;99.90;;;;;;7298080;32;20812;-63
2023/01/01 07:46:13;;;;;;;7.95;1.73;;;14.20;99.90;;;;;;7280099;32;20108;-62
2023/01/01 07:50:16;;;;;;;4.55;1.45;;;14.10;99.90;;;;;;7295137;32;20150;-63
2023/01/01 07:54:18;;;;;;;8.23;1.60;;;13.90;99.90;;;;;;7296898;32;20226;-63
2023/01/01 07:58:21;;;;;;;8.65;1.70;;;13.80;99.90;;;;;;7283545;32;20139;-63
2023/01/01 08:02:23;;;;;;;6.78;1.58;;;13.70;99.90;;;;;;7298745;32;20115;-63
2023/01/01 08:06:25;;;;;;;4.70;1.33;;;13.70;99.90;;;;;;7284810;32;20109;-63
2023/01/01 08:10:27;;;;;;;3.22;1.10;;;13.80;99.90;;;;;;7283831;32;20510;-63
2023/01/01 08:14:28;;;;;;;8.10;1.65;;;13.80;99.90;;;;;;7271320;32;20177;-62
2023/01/01 08:18:30;;;;;;;8.25;1.95;;;13.80;99.90;;;;;;7298827;32;20206;-62
2023/01/01 08:22:32;;;;;;;4.87;1.27;;;13.80;99.90;;;;;;7279345;32;20674;-63
2023/01/01 08:26:35;;;;;;;9.07;1.73;;;13.70;99.90;;;;;;7292963;32;20413;-63
2023/01/01 08:30:37;;;;;;;9.15;1.85;;;13.70;99.90;;;;;;7297083;32;20158;-64
2023/01/01 08:34:39;;;;;;;5.47;1.65;;;13.70;99.90;;;;;;7272250;32;20116;-63
2023/01/01 08:38:42;;;;;;;8.68;1.52;;;13.70;99.90;;;;;;7300002;32;20796;-63
2023/01/01 08:42:44;;;;;;;8.60;1.40;;;13.80;99.90;;;;;;7292720;32;20213;-62
2023/01/01 08:46:45;;;;;;;3.78;1.23;;;13.80;99.90;;;;;;7274893;32;20109;-63
2023/01/01 08:50:54;;;;;;;9.00;1.30;;;13.70;99.90;;;;;;7295574;32;20138;-62
2023/01/01 08:54:55;;;;;;;5.72;1.25;;;13.70;99.90;;;;;;7281322;32;20136;-63
2023/01/01 08:58:57;;;;;;;6.78;1.50;;;13.70;99.90;;;;;;7294607;32;20112;-62
2023/01/01 09:03:05;;;;;;;5.57;1.40;;;13.80;99.90;;;;;;7290870;32;20101;-63
2023/01/01 09:07:07;;;;;;;5.78;1.70;;;13.70;99.90;;;;;;7299622;32;20512;-62
2023/01/01 09:11:21;;;;;;;6.62;1.80;;;13.80;99.90;;;;;;7302955;32;20108;-63
2023/01/01 09:15:23;;;;;;;4.47;1.52;;;13.80;99.90;;;;;;7298564;32;20126;-63
2023/01/01 09:19:25;;;;;;;8.05;2.42;;;13.80;99.90;;;;;;7299920;32;20517;-64
2023/01/01 09:23:27;;;;;;;8.00;1.80;;;13.80;99.90;;;;;;7293406;32;20135;-63
2023/01/01 09:27:28;;;;;;;7.70;1.37;;;13.80;99.90;;;;;;7293234;32;20112;-63
2023/01/01 09:31:30;;;;;;;6.50;1.70;;;13.80;99.90;;;;;;7290654;32;20107;-63
2023/01/01 09:35:32;;;;;;;6.87;1.58;;;13.90;99.90;;;;;;7293660;32;20272;-63
2023/01/01 09:39:33;;;;;;;7.65;1.60;;;13.90;99.90;;;;;;7293325;32;20159;-62
2023/01/01 09:44:08;;;;;;;6.35;2.17;;;13.90;99.90;;;;;;7283398;32;20191;-62
2023/01/01 09:48:14;;;;;;;6.87;1.75;;;13.90;99.90;;;;;;7282361;32;20210;-62
2023/01/01 09:52:17;;;;;;;6.90;1.27;;;13.90;99.90;;;;;;7294313;32;20111;-63
2023/01/01 09:56:26;;;;;;;5.20;1.45;;;13.90;99.90;;;;;;7294732;32;20338;-62
2023/01/01 10:00:31;;;;;;;3.50;1.10;;;13.90;99.90;;;;;;7297095;32;20274;-64
2023/01/01 10:05:10;;;;;;;7.70;1.83;;;13.90;99.90;;;;;;7284501;32;20198;-62
2023/01/01 10:09:21;;;;;;;6.00;1.85;;;13.90;99.90;;;;;;7296241;32;20096;-61
2023/01/01 10:13:35;;;;;;;9.25;1.65;;;13.90;99.90;;;;;;7297825;32;20220;-61
2023/01/01 10:17:42;;;;;;;10.60;1.60;;;13.90;99.90;;;;;;7297520;32;20809;-61
2023/01/01 10:21:45;;;;;;;6.37;1.62;;;13.90;99.90;;;;;;7291715;32;20498;-58
2023/01/01 10:25:48;;;;;;;6.87;1.40;;;13.90;99.90;;;;;;7269032;32;20670;-57
2023/01/01 10:29:51;;;;;;;4.60;1.67;;;14.00;99.90;;;;;;7288147;32;20134;-57
2023/01/01 10:34:19;;;;;;;5.90;1.48;;;14.20;99.90;;;;;;7293334;32;20802;-58
2023/01/01 10:38:25;;;;;;;7.53;1.50;;;14.10;99.90;;;;;;7291678;32;20145;-62
2023/01/01 10:42:27;;;;;;;6.75;2.22;;;14.10;99.90;;;;;;7299832;32;20108;-62
2023/01/01 10:46:29;;;;;;;5.62;1.67;;;14.00;99.90;;;;;;7298843;32;20112;-63
2023/01/01 10:50:50;;;;;;;7.53;1.70;;;13.90;99.90;;;;;;7298521;32;20730;-63
2023/01/01 10:54:52;;;;;;;5.95;1.27;;;14.00;99.90;;;;;;7296841;32;20116;-62
2023/01/01 10:58:56;;;;;;;8.90;1.65;;;13.90;99.90;;;;;;7298647;32;20307;-63
2023/01/01 11:03:20;;;;;;;5.32;1.50;;;14.00;99.90;;;;;;7287611;32;20139;-64
2023/01/01 11:07:32;;;;;;;8.25;1.33;;;14.00;99.90;;;;;;7283398;32;20131;-62
2023/01/01 11:11:42;;;;;;;9.02;1.92;;;14.00;99.90;;;;;;7275317;32;20214;-62
2023/01/01 11:15:44;;;;;;;9.20;1.62;;;14.00;99.90;;;;;;7291439;32;20217;-59
2023/01/01 11:19:48;;;;;;;5.72;1.58;;;14.00;99.90;;;;;;7295164;32;20560;-59
2023/01/01 11:24:21;;;;;;;10.77;1.65;;;14.30;99.90;;;;;;7295177;32;20639;-59
2023/01/01 11:28:23;;;;;;;6.35;1.12;;;14.40;99.90;;;;;;7291600;32;20130;-59
2023/01/01 11:32:34;;;;;;;6.82;1.52;;;14.60;99.90;;;;;;7294095;32;20341;-59
2023/01/01 11:36:36;;;;;;;5.65;1.58;;;14.50;99.90;;;;;;7282811;32;20248;-59
2023/01/01 11:40:46;;;;;;;6.47;1.55;;;14.50;99.90;;;;;;7295773;32;20111;-58
2023/01/01 11:44:54;;;;;;;7.43;1.70;;;14.40;99.90;;;;;;7296468;32;20160;-63
2023/01/01 11:48:56;;;;;;;7.00;1.52;;;14.30;99.90;;;;;;7298553;32;20136;-63
2023/01/01 11:53:22;;;;;;;8.30;2.00;;;14.30;99.90;;;;;;7292774;32;20116;-63
2023/01/01 11:57:25;;;;;;;4.10;1.48;;;14.20;99.90;;;;;;7295714;32;20573;-59
2023/01/01 12:02:10;;;;;;;4.32;1.50;;;14.20;99.90;;;;;;7277496;32;20111;-59
2023/01/01 12:06:22;;;;;;;5.57;1.25;;;14.20;99.90;;;;;;7280575;32;20120;-63
2023/01/01 12:10:29;;;;;;;5.45;1.52;;;14.20;99.90;;;;;;7281953;32;20120;-63
2023/01/01 12:14:46;;;;;;;;;;;14.20;99.90;;;;;;7298993;32;20142;-60
2023/01/01 12:19:01;;;;;;;8.82;1.70;;;14.20;99.90;;;;;;7293454;32;20145;-60
2023/01/01 12:23:03;;;;;;;10.88;1.92;;;14.20;99.90;;;;;;7283417;32;20555;-60
2023/01/01 12:27:14;;;;;;;4.78;1.37;;;14.20;99.90;;;;;;7297687;32;20321;-61
2023/01/01 12:31:22;;;;;;;9.00;1.80;;;14.20;99.90;;;;;;7299436;32;20111;-61
2023/01/01 12:35:43;;;;;;;6.35;1.60;;;14.40;99.90;;;;;;7297249;32;20108;-63
2023/01/01 12:40:05;;;;;;;7.85;1.30;;;14.30;99.90;;;;;;7283506;32;20855;-64
2023/01/01 12:44:33;;;;;;;6.93;1.45;;;14.20;99.90;;;;;;7294954;32;20092;-63
2023/01/01 12:48:56;;;;;;;6.20;1.30;;;14.20;99.90;;;;;;7296660;32;20250;-63
2023/01/01 12:53:25;;;;;;;7.45;1.80;;;14.10;99.90;;;;;;7288759;32;20117;-58
2023/01/01 12:58:01;;;;;;;7.93;1.30;;;14.20;99.90;;;;;;7293958;32;20108;-57
2023/01/01 13:02:13;;;;;;;8.68;1.60;;;14.30;99.90;;;;;;7251339;32;20193;-62
2023/01/01 13:06:18;;;;;;;6.65;1.60;;;14.30;99.90;;;;;;7291885;32;20534;-63
2023/01/01 13:10:33;;;;;;;7.43;1.37;;;14.10;99.90;;;;;;7291859;32;20138;-63
2023/01/01 13:14:43;;;;;;;9.80;1.80;;;14.00;99.90;;;;;;7296872;32;20255;-63
2023/01/01 13:18:48;;;;;;;5.37;1.25;;;14.00;99.90;;;;;;7292116;32;20247;-62
2023/01/01 13:22:50;;;;;;;6.87;1.60;;;14.00;99.90;;;;;;7287224;32;20803;-62
2023/01/01 13:26:53;;;;;;;8.10;1.35;;;14.00;99.90;;;;;;7293029;32;20210;-62
2023/01/01 13:30:54;;;;;;;7.95;1.98;;;13.90;99.90;;;;;;7288112;32;20230;-61
2023/01/01 13:35:01;;;;;;;6.65;1.90;;;14.00;99.90;;;;;;7290904;32;20828;-62
2023/01/01 13:39:03;;;;;;;6.30;1.62;;;13.90;99.90;;;;;;7288863;32;20158;-62
2023/01/01 13:43:16;;;;;;;7.53;2.22;;;13.90;99.90;;;;;;7300313;32;20238;-62
2023/01/01 13:47:49;;;;;;;9.88;2.20;;;13.90;99.90;;;;;;7280400;32;20134;-62
2023/01/01 13:51:51;;;;;;;5.85;1.40;;;13.90;99.90;;;;;;7286247;32;20116;-61
2023/01/01 13:56:09;;;;;;;5.00;1.73;;;13.80;99.90;;;;;;7299727;32;20112;-61
2023/01/01 14:00:20;;;;;;;8.23;2.05;;;13.80;99.90;;;;;;7293337;32;20109;-61
2023/01/01 14:04:41;;;;;;;7.10;1.40;;;13.80;99.90;;;;;;7268672;32;20348;-62
2023/01/01 14:08:42;;;;;;;8.50;1.62;;;13.80;99.90;;;;;;7287402;32;20258;-62
2023/01/01 14:12:45;;;;;;;11.80;1.90;;;13.70;99.90;;;;;;7295627;32;20423;-62
2023/01/01 14:16:46;;;;;;;9.50;1.92;;;13.80;99.90;;;;;;7297822;32;20142;-62
2023/01/01 14:20:51;;;;;;;6.28;2.08;;;13.80;99.90;;;;;;7300075;32;20120;-62
2023/01/01 14:24:52;;;;;;;9.38;1.70;;;13.70;99.90;;;;;;7291487;32;20226;-61
2023/01/01 14:28:56;;;;;;;5.60;1.62;;;13.70;99.90;;;;;;7295191;32;20125;-62
2023/01/01 14:33:00;;;;;;;6.55;1.35;;;13.70;99.90;;;;;;7282538;32;20129;-62
2023/01/01 14:37:04;;;;;;;5.82;1.60;;;13.70;99.90;;;;;;7281204;32;20147;-61
2023/01/01 14:41:09;;;;;;;4.37;1.20;;;13.70;99.90;;;;;;7294693;32;20112;-60
2023/01/01 14:45:16;;;;;;;6.20;1.75;;;13.60;99.90;;;;;;7297266;32;20111;-61
2023/01/01 14:49:20;;;;;;;;;;;13.60;99.90;;;;;;7292494;32;20120;-60
2023/01/01 14:53:32;;;;;;;7.32;1.50;;;13.50;99.90;;;;;;7299582;32;20007;-60
2023/01/01 14:57:36;;;;;;;6.75;1.50;;;13.50;99.90;;;;;;7292581;32;20137;-60
2023/01/01 15:01:41;;;;;;;8.05;1.62;;;13.40;99.90;;;;;;7293987;32;20361;-60
2023/01/01 15:05:45;;;;;;;7.82;1.75;;;13.50;99.90;;;;;;7288617;32;20214;-60
2023/01/01 15:09:48;;;;;;;7.95;1.77;;;13.30;99.90;;;;;;7294537;32;20150;-61
2023/01/01 15:14:29;;;;;;;7.72;2.03;;;13.20;99.90;;;;;;7296400;32;20108;-64
2023/01/01 15:18:39;;;;;;;8.65;2.40;;;13.20;99.90;;;;;;7290398;32;20142;-64
2023/01/01 15:22:42;;;;;;;9.13;1.90;;;13.10;99.90;;;;;;7291780;32;20598;-65
2023/01/01 15:26:54;;;;;;;6.82;1.98;;;13.00;99.90;;;;;;7297363;32;20173;-63
2023/01/01 15:30:56;;;;;;;7.68;1.55;;;12.90;99.90;;;;;;7297522;32;20199;-61
2023/01/01 15:35:04;;;;;;;6.90;2.12;;;12.80;99.90;;;;;;7298892;32;20134;-61
2023/01/01 15:39:10;;;;;;;11.23;2.28;;;12.70;99.90;;;;;;7296601;32;20548;-63
2023/01/01 15:43:21;;;;;;;7.22;1.85;;;12.70;99.90;;;;;;7297289;32;20270;-62
2023/01/01 15:47:25;;;;;;;8.25;2.97;;;12.50;99.90;;;;;;7293851;32;20103;-60
2023/01/01 15:51:28;;;;;;;9.90;2.03;;;12.50;99.90;;;;;;7295498;32;20115;-61
2023/01/01 15:55:33;;;;;;;5.43;1.60;;;12.50;99.90;;;;;;7298286;32;20119;-61
2023/01/01 15:59:35;;;;;;;7.03;1.50;;;12.60;99.90;;;;;;7296761;32;20198;-61
2023/01/01 16:03:39;;;;;;;6.82;1.45;;;12.70;99.90;;;;;;7293521;32;20671;-62
2023/01/01 16:07:41;;;;;;;8.18;1.95;;;12.60;99.90;;;;;;7295958;32;20188;-61
2023/01/01 16:11:44;;;;;;;5.97;2.00;;;12.50;99.90;;;;;;7295017;32;20120;-61
2023/01/01 16:15:50;;;;;;;6.22;1.90;;;12.50;99.90;;;;;;7287997;32;20270;-62
2023/01/01 16:19:53;;;;;;;5.25;1.75;;;12.20;99.90;;;;;;7290957;32;20167;-62
2023/01/01 16:23:55;;;;;;;6.60;1.58;;;12.20;99.90;;;;;;7287775;32;20363;-62
2023/01/01 16:27:57;;;;;;;7.90;2.03;;;12.20;99.90;;;;;;7292782;32;22490;-61
2023/01/01 16:31:58;;;;;;;6.72;1.80;;;12.20;99.90;;;;;;7293548;32;20159;-61
2023/01/01 16:36:00;;;;;;;8.15;2.03;;;12.20;99.90;;;;;;7291367;32;20257;-60
2023/01/01 16:40:02;;;;;;;4.30;1.80;;;12.00;99.90;;;;;;7287371;32;20138;-62
2023/01/01 16:44:04;;;;;;;5.32;1.70;;;11.80;99.90;;;;;;7273517;32;20293;-61
2023/01/01 16:48:06;;;;;;;4.30;1.45;;;11.80;99.90;;;;;;7280071;32;20320;-62
2023/01/01 16:52:07;;;;;;;6.68;1.77;;;11.70;99.90;;;;;;7286685;32;20365;-61
2023/01/01 16:56:11;;;;;;;5.25;1.75;;;11.60;99.90;;;;;;7291955;32;20108;-61
2023/01/01 17:00:13;;;;;;;2.97;1.67;;;11.60;99.90;;;;;;7290113;32;20203;-60
2023/01/01 17:04:15;;;;;;;7.53;1.50;;;11.60;99.90;;;;;;7291361;32;20100;-61
2023/01/01 17:08:16;;;;;;;5.97;1.90;;;11.50;99.90;;;;;;7293084;32;20115;-61
2023/01/01 17:12:18;;;;;;;3.67;1.85;;;11.30;99.90;;;;;;7287447;32;20131;-60
2023/01/01 17:16:20;;;;;;;4.65;1.85;;;11.20;99.90;;;;;;7285146;32;20518;-60
2023/01/01 17:20:29;;;;;;;6.78;2.80;;;11.20;99.90;;;;;;7284016;32;20100;-60
2023/01/01 17:24:31;;;;;;;7.95;2.17;;;11.20;99.90;;;;;;7291493;32;20498;-59
2023/01/01 17:28:33;;;;;;;4.75;1.65;;;11.20;99.90;;;;;;7291699;32;20219;-59
2023/01/01 17:32:35;;;;;;;6.37;1.70;;;11.10;99.90;;;;;;7296525;32;20591;-61
2023/01/01 17:36:40;;;;;;;7.75;1.73;;;11.00;99.90;;;;;;7292594;32;20141;-60
2023/01/01 17:40:42;;;;;;;7.28;2.25;;;11.00;99.90;;;;;;7295545;32;20122;-61
2023/01/01 17:44:43;;;;;;;7.32;2.37;;;10.90;99.90;;;;;;7294816;32;20212;-62
2023/01/01 17:48:46;;;;;;;8.10;3.00;;;10.90;99.90;;;;;;7296840;32;20225;-61
2023/01/01 17:52:48;;;;;;;7.75;2.90;;;10.90;99.90;;;;;;7297485;32;20290;-61
2023/01/01 17:56:50;;;;;;;5.85;2.55;;;10.90;99.90;;;;;;7284715;32;20166;-61
2023/01/01 18:00:52;;;;;;;6.43;2.58;;;10.90;99.90;;;;;;7295029;32;20128;-62
2023/01/01 18:04:53;;;;;;;8.15;2.95;;;10.90;99.90;;;;;;7298788;32;20447;-61
2023/01/01 18:09:00;;;;;;;8.13;2.62;;;10.80;99.90;;;;;;7295463;32;20320;-62
2023/01/01 18:13:03;;;;;;;8.55;2.60;;;10.90;99.90;;;;;;7289476;32;21027;-62
2023/01/01 18:17:04;;;;;;;5.70;2.75;;;10.80;99.90;;;;;;7295604;32;20116;-62
2023/01/01 18:21:20;;;;;;;8.85;3.12;;;10.90;99.90;;;;;;7292765;32;20127;-62
2023/01/01 18:25:22;;;;;;;7.60;3.53;;;10.90;99.90;;;;;;7276713;32;20112;-63
2023/01/01 18:29:24;;;;;;;10.43;3.40;;;10.90;99.90;;;;;;7267993;32;20235;-63
2023/01/01 18:33:25;;;;;;;9.35;3.25;;;10.80;99.90;;;;;;7290441;32;20203;-60
2023/01/01 18:37:27;;;;;;;10.90;3.72;;;10.80;99.90;;;;;;7293310;32;20128;-61
2023/01/01 18:41:44;;;;;;;6.18;3.42;;;10.80;99.90;;;;;;7294236;32;20645;-61
2023/01/01 18:45:45;;;;;;;11.55;3.90;;;10.80;99.90;;;;;;7284851;32;20199;-61
2023/01/01 18:49:54;;;;;;;8.00;3.75;;;10.80;99.90;;;;;;7290228;32;20619;-61
2023/01/01 18:53:57;;;;;;;7.40;3.87;;;10.80;99.90;;;;;;7298378;32;20609;-62
2023/01/01 18:58:22;;;;;;;10.00;4.12;;;10.90;99.90;;;;;;7295479;32;20228;-60
2023/01/01 19:02:41;;;;;;;11.77;4.20;;;10.80;99.90;;;;;;7292145;32;20097;-60
2023/01/01 19:06:44;;;;;;;6.62;3.90;;;10.80;99.90;;;;;;7297847;32;20367;-60
2023/01/01 19:10:53;;;;;;;10.07;4.37;;;10.80;99.90;;;;;;7298451;32;20611;-61
2023/01/01 19:14:55;;;;;;;8.32;4.18;;;10.80;99.90;;;;;;7297789;32;20099;-60
2023/01/01 19:19:24;;;;;;;13.62;4.40;;;10.80;99.90;;;;;;7295059;32;20663;-61
2023/01/01 19:23:25;;;;;;;8.18;4.30;;;10.80;99.90;;;;;;7297705;32;20314;-61
2023/01/01 19:27:32;;;;;;;10.25;4.30;;;10.90;99.90;;;;;;7296455;32;20661;-61
2023/01/01 19:31:34;;;;;;;12.23;5.28;;;10.80;99.90;;;;;;7283758;32;20092;-61
2023/01/01 19:35:36;;;;;;;9.18;4.37;;;10.80;99.90;;;;;;7295843;32;20568;-61
2023/01/01 19:39:38;;;;;;;12.55;5.47;;;10.80;99.90;;;;;;7294056;32;20100;-62
2023/01/01 19:43:40;;;;;;;14.48;5.37;;;10.80;99.90;;;;;;7299172;32;20171;-62
2023/01/01 19:47:42;;;;;;;10.75;4.87;;;10.80;99.90;;;;;;7292145;32;20123;-63
2023/01/01 19:51:43;;;;;;;11.95;4.80;;;10.80;99.90;;;;;;7296805;32;20096;-61
2023/01/01 19:55:45;;;;;;;11.32;4.45;;;10.80;99.90;;;;;;7295182;32;20231;-61
2023/01/01 19:59:47;;;;;;;11.57;4.57;;;10.80;99.90;;;;;;7263551;32;20143;-61
2023/01/01 20:03:49;;;;;;;8.45;4.25;;;10.80;99.90;;;;;;7293186;32;20226;-62
2023/01/01 20:07:57;;;;;;;8.20;4.25;;;10.80;99.90;;;;;;7295222;32;20223;-62
2023/01/01 20:11:59;;;;;;;9.95;4.60;;;10.70;99.90;;;;;;7280390;32;20154;-60
2023/01/01 20:16:01;;;;;;;9.68;4.35;;;10.70;99.90;;;;;;7301285;32;20689;-62
2023/01/01 20:20:04;;;;;;;9.75;4.65;;;10.70;99.90;;;;;;7296110;32;20153;-60
2023/01/01 20:24:05;;;;;;;11.12;4.57;;;10.70;99.90;;;;;;7296865;32;20138;-61
2023/01/01 20:32:28;;;;;;;9.93;4.82;;;10.70;99.90;;;;;;7293861;32;20542;-61
2023/01/01 20:40:50;;;;;;;13.00;4.30;;;10.80;99.90;;;;;;7296307;32;20128;-62
2023/01/01 20:44:51;;;;;;;15.68;4.53;;;10.80;99.90;;;;;;7297137;32;20130;-61
2023/01/01 20:48:53;;;;;;;10.90;4.12;;;10.80;99.90;;;;;;7293161;32;20256;-60
2023/01/01 20:52:55;;;;;;;11.32;3.83;;;10.90;99.90;;;;;;7297105;32;20305;-62
2023/01/01 20:56:56;;;;;;;9.35;4.12;;;10.90;99.90;;;;;;7296702;32;20191;-60
2023/01/01 21:00:58;;;;;;;7.37;4.10;;;11.00;99.90;;;;;;7295415;32;20717;-61
2023/01/01 21:05:00;;;;;;;8.40;3.80;;;11.00;99.90;;;;;;7292366;32;20141;-60
2023/01/01 21:09:04;;;;;;;7.87;3.83;;;11.10;99.90;;;;;;7296112;32;20108;-60
2023/01/01 21:13:05;;;;;;;8.60;4.10;;;11.10;99.90;;;;;;7291009;32;20155;-62
2023/01/01 21:17:20;;;;;;;9.90;3.85;;;11.10;99.90;;;;;;7292930;32;20100;-60
2023/01/01 21:21:31;;;;;;;9.23;3.60;;;11.20;99.90;;;;;;7294613;32;20553;-60
2023/01/01 21:25:36;;;;;;;10.52;3.37;;;11.20;99.90;;;;;;7274921;32;20740;-60
2023/01/01 21:29:56;;;;;;;11.48;4.53;;;11.20;99.90;;;;;;7290074;32;20126;-61